sensor_id;sensor_type;location;lat;lon;timestamp;pressure;altitude;pressure_sealevel;temperature;humidity
82858;BME280;72620;47.774;9.620;2024-03-23T00:56:08;95816.31;;;7.75;80.02
82858;BME280;72620;47.774;9.620;2024-03-23T00:58:34;95816.31;;;7.75;80.02
82858;BME280;72620;47.774;9.620;2024-03-23T01:01:00;95814.47;;;7.68;79.94
82858;BME280;72620;47.774;9.620;2024-03-23T01:03:27;95808.44;;;7.69;79.74
82858;BME280;72620;47.774;9.620;2024-03-23T01:05:53;95805.88;;;7.69;80.07
82858;BME280;72620;47.774;9.620;2024-03-23T01:08:19;95802.63;;;7.67;79.73
82858;BME280;72620;47.774;9.620;2024-03-23T01:11:01;95808.69;;;7.66;81.30
82858;BME280;72620;47.774;9.620;2024-03-23T01:13:28;95801.75;;;7.58;81.27
82858;BME280;72620;47.774;9.620;2024-03-23T01:15:56;95801.25;;;7.55;82.01
82858;BME280;72620;47.774;9.620;2024-03-23T01:18:23;95803.78;;;7.55;81.68
82858;BME280;72620;47.774;9.620;2024-03-23T01:20:49;95808.75;;;7.56;81.25
82858;BME280;72620;47.774;9.620;2024-03-23T01:23:16;95804.19;;;7.60;81.53
82858;BME280;72620;47.774;9.620;2024-03-23T01:25:41;95801.47;;;7.61;80.93
82858;BME280;72620;47.774;9.620;2024-03-23T01:28:07;95797.28;;;7.60;80.70
82858;BME280;72620;47.774;9.620;2024-03-23T01:30:36;95803.38;;;7.59;81.00
82858;BME280;72620;47.774;9.620;2024-03-23T01:33:02;95798.53;;;7.56;81.52
82858;BME280;72620;47.774;9.620;2024-03-23T01:35:28;95805.53;;;7.54;81.14
82858;BME280;72620;47.774;9.620;2024-03-23T01:37:54;95803.00;;;7.54;81.35
82858;BME280;72620;47.774;9.620;2024-03-23T01:40:20;95806.47;;;7.53;80.99
82858;BME280;72620;47.774;9.620;2024-03-23T01:43:03;95803.00;;;7.54;81.49
82858;BME280;72620;47.774;9.620;2024-03-23T01:45:36;95803.91;;;7.53;81.93
82858;BME280;72620;47.774;9.620;2024-03-23T01:48:02;95803.91;;;7.53;81.93
82858;BME280;72620;47.774;9.620;2024-03-23T01:50:29;95797.22;;;7.52;81.01
82858;BME280;72620;47.774;9.620;2024-03-23T01:53:00;95787.00;;;7.52;80.50
82858;BME280;72620;47.774;9.620;2024-03-23T01:55:28;95777.88;;;7.50;81.58
82858;BME280;72620;47.774;9.620;2024-03-23T01:57:56;95774.91;;;7.54;81.34
82858;BME280;72620;47.774;9.620;2024-03-23T02:00:23;95779.72;;;7.57;80.36
82858;BME280;72620;47.774;9.620;2024-03-23T02:02:49;95779.72;;;7.57;80.36
82858;BME280;72620;47.774;9.620;2024-03-23T02:05:15;95767.19;;;7.64;80.38
82858;BME280;72620;47.774;9.620;2024-03-23T02:07:42;95762.56;;;7.67;79.91
82858;BME280;72620;47.774;9.620;2024-03-23T02:10:09;95761.34;;;7.71;79.72
82858;BME280;72620;47.774;9.620;2024-03-23T02:12:39;95756.59;;;7.76;79.93
82858;BME280;72620;47.774;9.620;2024-03-23T02:15:05;95756.59;;;7.76;79.93
82858;BME280;72620;47.774;9.620;2024-03-23T02:17:34;95754.84;;;7.94;78.54
82858;BME280;72620;47.774;9.620;2024-03-23T02:20:00;95754.84;;;7.94;78.54
82858;BME280;72620;47.774;9.620;2024-03-23T02:22:39;95727.69;;;7.93;79.11
82858;BME280;72620;47.774;9.620;2024-03-23T02:25:05;95727.47;;;8.04;78.05
82858;BME280;72620;47.774;9.620;2024-03-23T02:27:32;95717.25;;;8.04;78.61
82858;BME280;72620;47.774;9.620;2024-03-23T02:30:00;95717.25;;;8.04;78.61
82858;BME280;72620;47.774;9.620;2024-03-23T02:32:25;95705.84;;;7.99;78.18
82858;BME280;72620;47.774;9.620;2024-03-23T02:34:51;95710.31;;;7.97;78.41
82858;BME280;72620;47.774;9.620;2024-03-23T02:37:17;95710.31;;;7.97;78.41
82858;BME280;72620;47.774;9.620;2024-03-23T02:39:42;95698.56;;;7.86;78.57
82858;BME280;72620;47.774;9.620;2024-03-23T02:42:08;95698.56;;;7.86;78.57
82858;BME280;72620;47.774;9.620;2024-03-23T02:44:34;95705.22;;;7.79;78.96
82858;BME280;72620;47.774;9.620;2024-03-23T02:47:00;95691.78;;;7.77;78.22
82858;BME280;72620;47.774;9.620;2024-03-23T02:49:27;95691.00;;;7.77;79.41
82858;BME280;72620;47.774;9.620;2024-03-23T02:51:52;95685.22;;;7.75;79.31
82858;BME280;72620;47.774;9.620;2024-03-23T02:54:18;95680.94;;;7.75;79.09
82858;BME280;72620;47.774;9.620;2024-03-23T02:56:44;95673.25;;;7.75;78.88
82858;BME280;72620;47.774;9.620;2024-03-23T02:59:10;95665.59;;;7.75;78.97
82858;BME280;72620;47.774;9.620;2024-03-23T03:01:35;95671.38;;;7.77;79.15
82858;BME280;72620;47.774;9.620;2024-03-23T03:04:01;95659.09;;;7.81;78.55
82858;BME280;72620;47.774;9.620;2024-03-23T03:06:27;95648.72;;;7.82;78.69
82858;BME280;72620;47.774;9.620;2024-03-23T03:08:55;95648.72;;;7.82;78.69
82858;BME280;72620;47.774;9.620;2024-03-23T03:11:21;95635.44;;;7.79;78.41
82858;BME280;72620;47.774;9.620;2024-03-23T03:13:47;95637.19;;;7.78;78.32
82858;BME280;72620;47.774;9.620;2024-03-23T03:16:12;95622.22;;;7.83;78.25
82858;BME280;72620;47.774;9.620;2024-03-23T03:18:38;95622.06;;;7.85;78.16
82858;BME280;72620;47.774;9.620;2024-03-23T03:21:06;95622.06;;;7.85;78.16
82858;BME280;72620;47.774;9.620;2024-03-23T03:23:37;95612.81;;;7.84;77.52
82858;BME280;72620;47.774;9.620;2024-03-23T03:26:04;95613.16;;;7.89;77.78
82858;BME280;72620;47.774;9.620;2024-03-23T03:28:33;95623.53;;;7.87;78.49
82858;BME280;72620;47.774;9.620;2024-03-23T03:31:00;95619.66;;;7.83;78.10
82858;BME280;72620;47.774;9.620;2024-03-23T03:33:27;95608.16;;;7.79;78.57
82858;BME280;72620;47.774;9.620;2024-03-23T03:35:54;95608.16;;;7.79;78.57
82858;BME280;72620;47.774;9.620;2024-03-23T03:38:20;95600.72;;;7.68;79.03
82858;BME280;72620;47.774;9.620;2024-03-23T03:40:46;95614.31;;;7.69;79.62
82858;BME280;72620;47.774;9.620;2024-03-23T03:43:12;95615.41;;;7.66;79.91
82858;BME280;72620;47.774;9.620;2024-03-23T03:45:38;95605.97;;;7.67;80.12
82858;BME280;72620;47.774;9.620;2024-03-23T03:48:04;95605.97;;;7.67;80.12
82858;BME280;72620;47.774;9.620;2024-03-23T03:50:30;95616.41;;;7.73;79.08
82858;BME280;72620;47.774;9.620;2024-03-23T03:52:56;95608.81;;;7.81;79.03
82858;BME280;72620;47.774;9.620;2024-03-23T03:55:21;95608.81;;;7.81;79.03
82858;BME280;72620;47.774;9.620;2024-03-23T03:57:47;95601.88;;;7.99;78.51
82858;BME280;72620;47.774;9.620;2024-03-23T04:00:13;95601.88;;;7.99;78.51
82858;BME280;72620;47.774;9.620;2024-03-23T04:02:39;95611.56;;;8.14;78.52
82858;BME280;72620;47.774;9.620;2024-03-23T04:05:06;95611.56;;;8.14;78.52
82858;BME280;72620;47.774;9.620;2024-03-23T04:07:33;95608.66;;;8.09;78.68
82858;BME280;72620;47.774;9.620;2024-03-23T04:09:59;95608.31;;;8.12;78.26
82858;BME280;72620;47.774;9.620;2024-03-23T04:12:25;95602.94;;;8.15;78.02
82858;BME280;72620;47.774;9.620;2024-03-23T04:14:51;95606.00;;;8.18;77.87
82858;BME280;72620;47.774;9.620;2024-03-23T04:17:17;95599.09;;;8.19;78.36
82858;BME280;72620;47.774;9.620;2024-03-23T04:19:44;95595.25;;;8.15;78.51
82858;BME280;72620;47.774;9.620;2024-03-23T04:22:10;95595.53;;;8.12;78.43
82858;BME280;72620;47.774;9.620;2024-03-23T04:24:36;95597.78;;;8.07;78.53
82858;BME280;72620;47.774;9.620;2024-03-23T04:27:01;95597.78;;;8.07;78.53
82858;BME280;72620;47.774;9.620;2024-03-23T04:29:28;95579.84;;;7.98;79.18
82858;BME280;72620;47.774;9.620;2024-03-23T04:31:54;95576.78;;;7.95;80.26
82858;BME280;72620;47.774;9.620;2024-03-23T04:34:21;95576.78;;;7.95;80.26
82858;BME280;72620;47.774;9.620;2024-03-23T04:36:48;95566.88;;;7.92;79.80
82858;BME280;72620;47.774;9.620;2024-03-23T04:39:14;95559.06;;;7.93;79.75
82858;BME280;72620;47.774;9.620;2024-03-23T04:41:40;95559.06;;;7.93;79.75
82858;BME280;72620;47.774;9.620;2024-03-23T04:44:06;95547.69;;;7.88;79.54
82858;BME280;72620;47.774;9.620;2024-03-23T04:46:31;95548.16;;;7.91;79.32
82858;BME280;72620;47.774;9.620;2024-03-23T04:48:57;95540.38;;;7.93;79.33
82858;BME280;72620;47.774;9.620;2024-03-23T04:51:23;95538.63;;;7.93;79.16
82858;BME280;72620;47.774;9.620;2024-03-23T04:53:49;95538.75;;;7.92;79.18
82858;BME280;72620;47.774;9.620;2024-03-23T04:56:16;95535.81;;;8.04;78.80
82858;BME280;72620;47.774;9.620;2024-03-23T04:58:43;95535.81;;;8.04;78.80
82858;BME280;72620;47.774;9.620;2024-03-23T05:01:10;95519.19;;;8.09;78.66
82858;BME280;72620;47.774;9.620;2024-03-23T05:03:36;95500.97;;;8.03;78.72
82858;BME280;72620;47.774;9.620;2024-03-23T05:06:02;95495.22;;;8.01;79.09
82858;BME280;72620;47.774;9.620;2024-03-23T05:08:28;95492.81;;;8.00;78.45
82858;BME280;72620;47.774;9.620;2024-03-23T05:10:54;95489.47;;;7.99;78.08
82858;BME280;72620;47.774;9.620;2024-03-23T05:13:19;95490.25;;;8.00;78.08
82858;BME280;72620;47.774;9.620;2024-03-23T05:15:52;95479.25;;;7.99;78.46
82858;BME280;72620;47.774;9.620;2024-03-23T05:18:18;95482.72;;;7.98;78.32
82858;BME280;72620;47.774;9.620;2024-03-23T05:20:44;95463.25;;;7.97;78.30
82858;BME280;72620;47.774;9.620;2024-03-23T05:23:10;95463.25;;;7.97;78.30
82858;BME280;72620;47.774;9.620;2024-03-23T05:25:36;95450.63;;;7.96;78.41
82858;BME280;72620;47.774;9.620;2024-03-23T05:28:02;95443.47;;;7.99;78.46
82858;BME280;72620;47.774;9.620;2024-03-23T05:30:28;95452.13;;;8.07;78.28
82858;BME280;72620;47.774;9.620;2024-03-23T05:32:54;95452.13;;;8.07;78.28
82858;BME280;72620;47.774;9.620;2024-03-23T05:35:19;95454.69;;;8.23;78.14
82858;BME280;72620;47.774;9.620;2024-03-23T05:37:46;95442.16;;;8.29;78.15
82858;BME280;72620;47.774;9.620;2024-03-23T05:40:12;95443.09;;;8.28;78.75
82858;BME280;72620;47.774;9.620;2024-03-23T05:42:39;95430.94;;;8.30;78.48
82858;BME280;72620;47.774;9.620;2024-03-23T05:45:05;95437.84;;;8.38;77.87
82858;BME280;72620;47.774;9.620;2024-03-23T05:47:32;95432.09;;;8.44;78.09
82858;BME280;72620;47.774;9.620;2024-03-23T05:49:58;95432.41;;;8.49;77.75
82858;BME280;72620;47.774;9.620;2024-03-23T05:52:24;95432.41;;;8.49;77.75
82858;BME280;72620;47.774;9.620;2024-03-23T05:54:51;95435.78;;;8.57;78.31
82858;BME280;72620;47.774;9.620;2024-03-23T05:57:17;95435.78;;;8.57;78.31
82858;BME280;72620;47.774;9.620;2024-03-23T05:59:44;95457.53;;;8.61;78.33
82858;BME280;72620;47.774;9.620;2024-03-23T06:02:10;95466.34;;;8.67;79.61
82858;BME280;72620;47.774;9.620;2024-03-23T06:04:36;95466.34;;;8.67;79.61
82858;BME280;72620;47.774;9.620;2024-03-23T06:07:03;95468.88;;;8.59;78.75
82858;BME280;72620;47.774;9.620;2024-03-23T06:09:31;95486.94;;;8.65;78.47
82858;BME280;72620;47.774;9.620;2024-03-23T06:11:57;95515.06;;;8.65;76.58
82858;BME280;72620;47.774;9.620;2024-03-23T06:14:23;95515.91;;;8.74;75.71
82858;BME280;72620;47.774;9.620;2024-03-23T06:16:49;95527.09;;;8.81;77.72
82858;BME280;72620;47.774;9.620;2024-03-23T06:19:15;95534.47;;;8.84;77.07
82858;BME280;72620;47.774;9.620;2024-03-23T06:21:46;95540.56;;;8.99;78.43
82858;BME280;72620;47.774;9.620;2024-03-23T06:24:12;95539.94;;;9.13;80.77
82858;BME280;72620;47.774;9.620;2024-03-23T06:26:38;95535.63;;;9.30;80.92
82858;BME280;72620;47.774;9.620;2024-03-23T06:29:04;95544.09;;;9.46;82.13
82858;BME280;72620;47.774;9.620;2024-03-23T06:31:31;95540.06;;;9.60;82.46
82858;BME280;72620;47.774;9.620;2024-03-23T06:33:57;95550.47;;;9.75;82.63
82858;BME280;72620;47.774;9.620;2024-03-23T06:36:23;95554.75;;;9.82;82.05
82858;BME280;72620;47.774;9.620;2024-03-23T06:38:49;95553.31;;;9.88;82.26
82858;BME280;72620;47.774;9.620;2024-03-23T06:41:15;95554.59;;;9.92;81.71
82858;BME280;72620;47.774;9.620;2024-03-23T06:43:40;95556.97;;;9.93;82.15
82858;BME280;72620;47.774;9.620;2024-03-23T06:46:06;95553.47;;;9.94;82.43
82858;BME280;72620;47.774;9.620;2024-03-23T06:48:32;95552.66;;;9.94;82.41
82858;BME280;72620;47.774;9.620;2024-03-23T06:50:58;95557.31;;;9.90;83.67
82858;BME280;72620;47.774;9.620;2024-03-23T06:53:24;95563.88;;;9.85;84.85
82858;BME280;72620;47.774;9.620;2024-03-23T06:55:51;95582.31;;;9.80;84.76
82858;BME280;72620;47.774;9.620;2024-03-23T06:58:25;95582.81;;;9.76;85.07
82858;BME280;72620;47.774;9.620;2024-03-23T07:00:50;95589.22;;;9.72;85.96
82858;BME280;72620;47.774;9.620;2024-03-23T07:03:17;95590.00;;;9.64;86.10
82858;BME280;72620;47.774;9.620;2024-03-23T07:05:43;95605.41;;;9.56;87.26
82858;BME280;72620;47.774;9.620;2024-03-23T07:08:09;95612.91;;;9.41;88.15
82858;BME280;72620;47.774;9.620;2024-03-23T07:10:35;95597.53;;;9.41;88.58
82858;BME280;72620;47.774;9.620;2024-03-23T07:13:04;95586.34;;;9.42;88.79
82858;BME280;72620;47.774;9.620;2024-03-23T07:15:30;95615.50;;;9.49;89.80
82858;BME280;72620;47.774;9.620;2024-03-23T07:17:56;95615.50;;;9.49;89.80
82858;BME280;72620;47.774;9.620;2024-03-23T07:20:21;95592.28;;;9.43;90.08
82858;BME280;72620;47.774;9.620;2024-03-23T07:22:47;95594.84;;;9.51;89.68
82858;BME280;72620;47.774;9.620;2024-03-23T07:25:13;95592.75;;;9.55;89.59
82858;BME280;72620;47.774;9.620;2024-03-23T07:27:39;95582.97;;;9.66;87.81
82858;BME280;72620;47.774;9.620;2024-03-23T07:30:06;95591.31;;;9.76;87.74
82858;BME280;72620;47.774;9.620;2024-03-23T07:32:32;95597.69;;;9.80;85.72
82858;BME280;72620;47.774;9.620;2024-03-23T07:34:57;95597.69;;;9.80;85.72
82858;BME280;72620;47.774;9.620;2024-03-23T07:37:23;95593.38;;;9.81;85.67
82858;BME280;72620;47.774;9.620;2024-03-23T07:39:49;95603.16;;;9.77;84.96
82858;BME280;72620;47.774;9.620;2024-03-23T07:42:15;95621.91;;;9.70;84.42
82858;BME280;72620;47.774;9.620;2024-03-23T07:44:41;95644.94;;;9.78;84.08
82858;BME280;72620;47.774;9.620;2024-03-23T07:47:06;95660.97;;;9.88;83.00
82858;BME280;72620;47.774;9.620;2024-03-23T07:49:33;95660.47;;;10.00;83.85
82858;BME280;72620;47.774;9.620;2024-03-23T07:51:58;95660.47;;;10.00;83.85
82858;BME280;72620;47.774;9.620;2024-03-23T07:54:24;95649.75;;;9.97;83.11
82858;BME280;72620;47.774;9.620;2024-03-23T07:56:50;95649.91;;;9.95;82.23
82858;BME280;72620;47.774;9.620;2024-03-23T07:59:15;95658.06;;;9.99;81.72
82858;BME280;72620;47.774;9.620;2024-03-23T08:01:41;95658.06;;;9.99;81.72
82858;BME280;72620;47.774;9.620;2024-03-23T08:04:07;95668.34;;;9.99;81.25
82858;BME280;72620;47.774;9.620;2024-03-23T08:06:33;95673.16;;;10.02;80.85
82858;BME280;72620;47.774;9.620;2024-03-23T08:08:58;95668.97;;;10.01;81.15
82858;BME280;72620;47.774;9.620;2024-03-23T08:11:31;95674.41;;;9.98;81.46
82858;BME280;72620;47.774;9.620;2024-03-23T08:14:00;95693.00;;;10.00;82.06
82858;BME280;72620;47.774;9.620;2024-03-23T08:16:27;95689.94;;;10.04;80.58
82858;BME280;72620;47.774;9.620;2024-03-23T08:18:53;95698.44;;;10.05;80.17
82858;BME280;72620;47.774;9.620;2024-03-23T08:21:21;95691.72;;;10.04;79.56
82858;BME280;72620;47.774;9.620;2024-03-23T08:23:47;95710.31;;;10.06;80.53
82858;BME280;72620;47.774;9.620;2024-03-23T08:26:15;95728.41;;;10.04;79.98
82858;BME280;72620;47.774;9.620;2024-03-23T08:28:43;95757.09;;;10.00;83.28
82858;BME280;72620;47.774;9.620;2024-03-23T08:31:13;95732.25;;;9.92;82.56
82858;BME280;72620;47.774;9.620;2024-03-23T08:33:40;95788.31;;;9.87;83.97
82858;BME280;72620;47.774;9.620;2024-03-23T08:36:09;95756.94;;;9.77;77.81
82858;BME280;72620;47.774;9.620;2024-03-23T08:38:40;95806.69;;;9.59;75.63
82858;BME280;72620;47.774;9.620;2024-03-23T08:41:08;95797.66;;;9.38;76.18
82858;BME280;72620;47.774;9.620;2024-03-23T08:43:41;95818.25;;;9.29;77.78
82858;BME280;72620;47.774;9.620;2024-03-23T08:46:09;95825.06;;;9.12;77.81
82858;BME280;72620;47.774;9.620;2024-03-23T08:48:44;95838.41;;;8.98;78.83
82858;BME280;72620;47.774;9.620;2024-03-23T08:51:13;95854.06;;;8.95;77.63
82858;BME280;72620;47.774;9.620;2024-03-23T08:53:40;95852.13;;;8.89;80.02
82858;BME280;72620;47.774;9.620;2024-03-23T08:56:07;95852.13;;;8.89;80.02
82858;BME280;72620;47.774;9.620;2024-03-23T08:58:35;95866.56;;;8.98;81.22
82858;BME280;72620;47.774;9.620;2024-03-23T09:01:10;95855.03;;;8.94;77.91
82858;BME280;72620;47.774;9.620;2024-03-23T09:03:39;95855.03;;;8.94;77.91
82858;BME280;72620;47.774;9.620;2024-03-23T09:06:10;95844.13;;;8.92;78.05
82858;BME280;72620;47.774;9.620;2024-03-23T09:08:37;95863.75;;;9.09;77.51
82858;BME280;72620;47.774;9.620;2024-03-23T09:11:13;95863.75;;;9.09;77.51
82858;BME280;72620;47.774;9.620;2024-03-23T09:13:39;95872.34;;;9.00;79.17
82858;BME280;72620;47.774;9.620;2024-03-23T09:16:07;95893.00;;;8.81;78.24
82858;BME280;72620;47.774;9.620;2024-03-23T09:18:35;95904.34;;;8.79;75.80
82858;BME280;72620;47.774;9.620;2024-03-23T09:21:03;95910.13;;;8.81;79.95
82858;BME280;72620;47.774;9.620;2024-03-23T09:23:29;95913.81;;;8.86;77.54
82858;BME280;72620;47.774;9.620;2024-03-23T09:25:55;95918.34;;;8.92;78.06
82858;BME280;72620;47.774;9.620;2024-03-23T09:28:22;95921.28;;;8.97;75.29
82858;BME280;72620;47.774;9.620;2024-03-23T09:30:48;95930.41;;;9.00;78.25
82858;BME280;72620;47.774;9.620;2024-03-23T09:33:14;95933.94;;;8.99;75.00
82858;BME280;72620;47.774;9.620;2024-03-23T09:35:41;95933.97;;;9.07;73.48
82858;BME280;72620;47.774;9.620;2024-03-23T09:38:08;95919.47;;;9.15;74.96
82858;BME280;72620;47.774;9.620;2024-03-23T09:40:39;95932.13;;;9.17;75.35
82858;BME280;72620;47.774;9.620;2024-03-23T09:43:06;95926.25;;;9.24;72.29
82858;BME280;72620;47.774;9.620;2024-03-23T09:45:38;95926.31;;;9.32;70.47
82858;BME280;72620;47.774;9.620;2024-03-23T09:48:06;95936.84;;;9.29;70.83
82858;BME280;72620;47.774;9.620;2024-03-23T09:50:43;95944.69;;;9.28;72.47
82858;BME280;72620;47.774;9.620;2024-03-23T09:53:11;95952.91;;;9.14;69.63
82858;BME280;72620;47.774;9.620;2024-03-23T09:55:40;95960.53;;;9.06;70.15
82858;BME280;72620;47.774;9.620;2024-03-23T09:58:06;95973.75;;;9.01;71.31
82858;BME280;72620;47.774;9.620;2024-03-23T10:00:35;95977.81;;;8.86;69.63
82858;BME280;72620;47.774;9.620;2024-03-23T10:03:01;95987.53;;;8.83;68.18
82858;BME280;72620;47.774;9.620;2024-03-23T10:05:29;96002.75;;;8.84;67.78
82858;BME280;72620;47.774;9.620;2024-03-23T10:07:57;96001.94;;;8.84;65.70
82858;BME280;72620;47.774;9.620;2024-03-23T10:10:25;96004.38;;;8.85;65.18
82858;BME280;72620;47.774;9.620;2024-03-23T10:12:51;96001.59;;;8.96;64.07
82858;BME280;72620;47.774;9.620;2024-03-23T10:15:19;95990.31;;;9.07;62.94
82858;BME280;72620;47.774;9.620;2024-03-23T10:17:47;95984.50;;;9.22;62.97
82858;BME280;72620;47.774;9.620;2024-03-23T10:20:19;95986.66;;;9.35;60.93
82858;BME280;72620;47.774;9.620;2024-03-23T10:22:49;95989.84;;;9.55;61.55
82858;BME280;72620;47.774;9.620;2024-03-23T10:25:17;96002.03;;;9.61;59.92
82858;BME280;72620;47.774;9.620;2024-03-23T10:27:59;95992.22;;;9.48;63.27
82858;BME280;72620;47.774;9.620;2024-03-23T10:30:26;96010.09;;;9.66;61.82
82858;BME280;72620;47.774;9.620;2024-03-23T10:33:19;96005.34;;;9.79;59.76
82858;BME280;72620;47.774;9.620;2024-03-23T10:35:47;96015.69;;;9.95;59.78
82858;BME280;72620;47.774;9.620;2024-03-23T10:38:14;96003.81;;;9.94;58.72
82858;BME280;72620;47.774;9.620;2024-03-23T10:40:41;95995.63;;;10.16;59.04
82858;BME280;72620;47.774;9.620;2024-03-23T10:43:08;95994.41;;;10.36;57.57
82858;BME280;72620;47.774;9.620;2024-03-23T10:45:34;95989.31;;;10.44;54.04
82858;BME280;72620;47.774;9.620;2024-03-23T10:48:00;95992.59;;;10.86;53.88
82858;BME280;72620;47.774;9.620;2024-03-23T10:50:28;95988.91;;;11.13;51.95
82858;BME280;72620;47.774;9.620;2024-03-23T10:52:54;95991.31;;;11.23;51.79
82858;BME280;72620;47.774;9.620;2024-03-23T10:55:25;95989.38;;;11.33;54.64
82858;BME280;72620;47.774;9.620;2024-03-23T10:57:54;95996.44;;;11.47;53.67
82858;BME280;72620;47.774;9.620;2024-03-23T11:00:22;96001.41;;;11.48;51.79
82858;BME280;72620;47.774;9.620;2024-03-23T11:02:48;95999.31;;;11.44;51.92
82858;BME280;72620;47.774;9.620;2024-03-23T11:07:53;95969.31;;;12.07;50.04
82858;BME280;72620;47.774;9.620;2024-03-23T11:10:27;95964.53;;;12.88;51.35
82858;BME280;72620;47.774;9.620;2024-03-23T11:12:59;95960.84;;;13.28;54.19
82858;BME280;72620;47.774;9.620;2024-03-23T11:15:47;95954.72;;;12.84;50.94
82858;BME280;72620;47.774;9.620;2024-03-23T11:18:20;95948.47;;;12.56;46.36
82858;BME280;72620;47.774;9.620;2024-03-23T11:20:46;95956.97;;;12.33;48.64
82858;BME280;72620;47.774;9.620;2024-03-23T11:23:28;95950.63;;;12.13;50.78
82858;BME280;72620;47.774;9.620;2024-03-23T11:25:54;95944.22;;;12.09;49.26
82858;BME280;72620;47.774;9.620;2024-03-23T11:28:20;95945.03;;;12.10;49.86
82858;BME280;72620;47.774;9.620;2024-03-23T11:30:47;95944.31;;;12.55;47.19
82858;BME280;72620;47.774;9.620;2024-03-23T11:33:13;95939.31;;;12.30;48.68
82858;BME280;72620;47.774;9.620;2024-03-23T11:35:39;95940.38;;;12.05;48.24
82858;BME280;72620;47.774;9.620;2024-03-23T11:38:14;95945.47;;;12.21;47.32
82858;BME280;72620;47.774;9.620;2024-03-23T11:40:46;95957.34;;;12.53;45.95
82858;BME280;72620;47.774;9.620;2024-03-23T11:43:14;95959.34;;;12.43;48.91
82858;BME280;72620;47.774;9.620;2024-03-23T11:45:43;95947.22;;;12.74;48.29
82858;BME280;72620;47.774;9.620;2024-03-23T11:48:23;95951.38;;;12.22;49.55
82858;BME280;72620;47.774;9.620;2024-03-23T11:50:50;95952.56;;;12.11;52.55
82858;BME280;72620;47.774;9.620;2024-03-23T11:53:26;95942.75;;;11.76;51.32
82858;BME280;72620;47.774;9.620;2024-03-23T11:55:55;95955.28;;;11.55;53.70
82858;BME280;72620;47.774;9.620;2024-03-23T11:58:25;95942.59;;;11.61;52.93
82858;BME280;72620;47.774;9.620;2024-03-23T12:00:55;95934.66;;;11.87;54.45
82858;BME280;72620;47.774;9.620;2024-03-23T12:03:23;95940.03;;;12.08;53.22
82858;BME280;72620;47.774;9.620;2024-03-23T12:06:02;95941.56;;;12.25;52.32
82858;BME280;72620;47.774;9.620;2024-03-23T12:08:29;95940.31;;;12.21;51.65
82858;BME280;72620;47.774;9.620;2024-03-23T12:11:11;95919.22;;;12.26;51.56
82858;BME280;72620;47.774;9.620;2024-03-23T12:13:39;95928.28;;;12.14;51.14
82858;BME280;72620;47.774;9.620;2024-03-23T12:18:40;95919.91;;;11.81;52.46
82858;BME280;72620;47.774;9.620;2024-03-23T12:21:07;95914.72;;;11.89;51.10
82858;BME280;72620;47.774;9.620;2024-03-23T12:23:34;95914.44;;;11.84;50.84
82858;BME280;72620;47.774;9.620;2024-03-23T12:26:00;95915.78;;;11.72;51.39
82858;BME280;72620;47.774;9.620;2024-03-23T12:28:27;95901.19;;;11.95;50.01
82858;BME280;72620;47.774;9.620;2024-03-23T12:30:54;95902.09;;;12.10;48.83
82858;BME280;72620;47.774;9.620;2024-03-23T12:33:20;95896.63;;;12.36;47.13
82858;BME280;72620;47.774;9.620;2024-03-23T12:35:47;95899.41;;;12.80;47.54
82858;BME280;72620;47.774;9.620;2024-03-23T12:38:14;95895.84;;;12.58;44.36
82858;BME280;72620;47.774;9.620;2024-03-23T12:40:39;95898.06;;;12.84;44.73
82858;BME280;72620;47.774;9.620;2024-03-23T12:43:06;95882.81;;;13.34;45.44
82858;BME280;72620;47.774;9.620;2024-03-23T12:45:33;95874.47;;;13.61;41.52
82858;BME280;72620;47.774;9.620;2024-03-23T12:47:59;95877.94;;;13.54;40.21
82858;BME280;72620;47.774;9.620;2024-03-23T12:50:24;95883.63;;;13.49;40.15
82858;BME280;72620;47.774;9.620;2024-03-23T12:52:50;95883.09;;;13.68;43.31
82858;BME280;72620;47.774;9.620;2024-03-23T12:55:16;95882.09;;;13.84;41.71
82858;BME280;72620;47.774;9.620;2024-03-23T12:57:42;95882.94;;;14.06;41.61
82858;BME280;72620;47.774;9.620;2024-03-23T13:00:08;95886.72;;;13.59;40.19
82858;BME280;72620;47.774;9.620;2024-03-23T13:02:38;95893.56;;;13.23;42.84
82858;BME280;72620;47.774;9.620;2024-03-23T13:05:05;95893.56;;;13.23;42.84
82858;BME280;72620;47.774;9.620;2024-03-23T13:07:33;95897.16;;;12.77;44.54
82858;BME280;72620;47.774;9.620;2024-03-23T13:09:59;95899.34;;;12.12;46.41
82858;BME280;72620;47.774;9.620;2024-03-23T13:12:24;95948.47;;;11.15;54.04
82858;BME280;72620;47.774;9.620;2024-03-23T13:14:50;95943.97;;;11.09;56.43
82858;BME280;72620;47.774;9.620;2024-03-23T13:17:16;95946.66;;;11.40;59.22
82858;BME280;72620;47.774;9.620;2024-03-23T13:19:41;95950.72;;;11.18;59.92
82858;BME280;72620;47.774;9.620;2024-03-23T13:22:07;95963.06;;;10.90;57.79
82858;BME280;72620;47.774;9.620;2024-03-23T13:24:33;95978.78;;;10.71;62.00
82858;BME280;72620;47.774;9.620;2024-03-23T13:26:59;95981.50;;;11.34;68.31
82858;BME280;72620;47.774;9.620;2024-03-23T13:29:25;95968.59;;;11.83;61.91
82858;BME280;72620;47.774;9.620;2024-03-23T13:31:52;95948.69;;;11.77;60.43
82858;BME280;72620;47.774;9.620;2024-03-23T13:34:19;95952.25;;;11.51;59.47
82858;BME280;72620;47.774;9.620;2024-03-23T13:36:46;95944.56;;;11.43;56.81
82858;BME280;72620;47.774;9.620;2024-03-23T13:39:13;95941.16;;;11.51;55.25
82858;BME280;72620;47.774;9.620;2024-03-23T13:41:42;95941.84;;;11.37;56.63
82858;BME280;72620;47.774;9.620;2024-03-23T13:44:13;95938.63;;;11.43;55.44
82858;BME280;72620;47.774;9.620;2024-03-23T13:46:41;95946.16;;;11.44;55.89
82858;BME280;72620;47.774;9.620;2024-03-23T13:49:30;95948.28;;;11.17;55.42
82858;BME280;72620;47.774;9.620;2024-03-23T13:51:58;95936.75;;;10.97;52.31
82858;BME280;72620;47.774;9.620;2024-03-23T13:54:24;95947.97;;;10.87;49.15
82858;BME280;72620;47.774;9.620;2024-03-23T13:56:52;95951.81;;;10.83;52.57
82858;BME280;72620;47.774;9.620;2024-03-23T13:59:22;95937.72;;;10.79;48.71
82858;BME280;72620;47.774;9.620;2024-03-23T14:01:50;95950.06;;;10.84;49.94
82858;BME280;72620;47.774;9.620;2024-03-23T14:04:16;95960.31;;;10.92;48.80
82858;BME280;72620;47.774;9.620;2024-03-23T14:06:45;95962.06;;;10.67;50.90
82858;BME280;72620;47.774;9.620;2024-03-23T14:09:12;95950.56;;;10.71;51.14